Main page
METAR-TAF:

METAR-TAF

Airports :

Florence Airport

Florence, Italy

latitude: 43-48N, longitude: 011-12E, elevation: 40 m

Current weather observation

The report was made 12 minutes ago, at 19:20 UTC
Wind 2 kt from variable directions
Temperature 17°C
Humidity 88%
Pressure 1014 hPa
Visibility 10 km or more
Scattered clouds at a height of 6000 ft

METAR: LIRQ 221920Z VRB02KT 9999 SCT060 17/15 Q1014

Time: 21:32 (19:32 UTC)

Forecast

The report was made 2 hours and 32 minutes ago, at 17:00 UTC
Forecast valid from 22 at 18 UTC to 23 at 18 UTC
Wind 5 kt from variable directions
Visibility 10 km or more
Scattered clouds at a height of 3000 ft
Temporary
from 23 at 12 UTC to 23 at 18 UTC
thunderstorm, rain

TAF: LIRQ 221700Z 2218/2318 VRB05KT 9999 SCT030 TEMPO 2312/2318 TSRA

Weather observations and forecasts of more than 4000 airports (METAR and TAF reports).

The available stations are represented by yellow and red dots on the map.

Hover mouse over dot to see the name of the station.

Then click to see weather observations and forecasts.

To change the map : click on the green buttons with a black cross to zoom in, on the green button with a dash to zoom out, or on the green arrows for adjacent maps.


METAR-TAF: